sensor_id;sensor_type;location;lat;lon;timestamp;temperature;humidity
10233;DHT22;5161;48.174;11.756;2024-01-15T00:00:40;1.30;63.00
10233;DHT22;5161;48.174;11.756;2024-01-15T00:03:06;1.30;64.80
10233;DHT22;5161;48.174;11.756;2024-01-15T00:05:32;1.40;64.10
10233;DHT22;5161;48.174;11.756;2024-01-15T00:07:57;1.50;64.60
10233;DHT22;5161;48.174;11.756;2024-01-15T00:10:23;1.50;65.80
10233;DHT22;5161;48.174;11.756;2024-01-15T00:12:49;1.40;66.30
10233;DHT22;5161;48.174;11.756;2024-01-15T00:15:15;1.50;66.80
10233;DHT22;5161;48.174;11.756;2024-01-15T00:17:40;1.60;66.70
10233;DHT22;5161;48.174;11.756;2024-01-15T00:20:06;1.60;66.90
10233;DHT22;5161;48.174;11.756;2024-01-15T00:22:32;1.60;67.10
10233;DHT22;5161;48.174;11.756;2024-01-15T00:24:58;1.70;67.00
10233;DHT22;5161;48.174;11.756;2024-01-15T00:27:23;1.70;67.50
10233;DHT22;5161;48.174;11.756;2024-01-15T00:29:49;1.70;68.00
10233;DHT22;5161;48.174;11.756;2024-01-15T00:32:17;1.60;68.30
10233;DHT22;5161;48.174;11.756;2024-01-15T00:34:42;1.60;69.00
10233;DHT22;5161;48.174;11.756;2024-01-15T00:37:08;1.70;68.30
10233;DHT22;5161;48.174;11.756;2024-01-15T00:39:33;1.80;68.50
10233;DHT22;5161;48.174;11.756;2024-01-15T00:41:59;1.80;68.70
10233;DHT22;5161;48.174;11.756;2024-01-15T00:44:24;1.80;68.80
10233;DHT22;5161;48.174;11.756;2024-01-15T00:46:50;1.80;68.70
10233;DHT22;5161;48.174;11.756;2024-01-15T00:49:16;1.80;68.50
10233;DHT22;5161;48.174;11.756;2024-01-15T00:51:42;1.80;68.60
10233;DHT22;5161;48.174;11.756;2024-01-15T00:54:07;1.80;68.40
10233;DHT22;5161;48.174;11.756;2024-01-15T00:56:33;1.80;68.10
10233;DHT22;5161;48.174;11.756;2024-01-15T00:59:00;1.80;68.10
10233;DHT22;5161;48.174;11.756;2024-01-15T01:01:25;1.80;68.10
10233;DHT22;5161;48.174;11.756;2024-01-15T01:03:51;1.90;67.90
10233;DHT22;5161;48.174;11.756;2024-01-15T01:06:17;1.90;67.30
10233;DHT22;5161;48.174;11.756;2024-01-15T01:08:42;1.80;66.90
10233;DHT22;5161;48.174;11.756;2024-01-15T01:11:08;1.70;66.60
10233;DHT22;5161;48.174;11.756;2024-01-15T01:13:37;1.60;66.30
10233;DHT22;5161;48.174;11.756;2024-01-15T01:16:03;1.50;65.80
10233;DHT22;5161;48.174;11.756;2024-01-15T01:18:28;1.50;65.70
10233;DHT22;5161;48.174;11.756;2024-01-15T01:20:54;1.50;65.30
10233;DHT22;5161;48.174;11.756;2024-01-15T01:23:20;1.50;64.80
10233;DHT22;5161;48.174;11.756;2024-01-15T01:25:45;1.50;65.10
10233;DHT22;5161;48.174;11.756;2024-01-15T01:28:11;1.50;64.70
10233;DHT22;5161;48.174;11.756;2024-01-15T01:30:36;1.50;64.60
10233;DHT22;5161;48.174;11.756;2024-01-15T01:33:02;1.50;64.40
10233;DHT22;5161;48.174;11.756;2024-01-15T01:35:28;1.50;64.10
10233;DHT22;5161;48.174;11.756;2024-01-15T01:37:53;1.50;63.50
10233;DHT22;5161;48.174;11.756;2024-01-15T01:40:19;1.40;63.20
10233;DHT22;5161;48.174;11.756;2024-01-15T01:42:44;1.30;62.70
10233;DHT22;5161;48.174;11.756;2024-01-15T01:45:10;1.20;62.40
10233;DHT22;5161;48.174;11.756;2024-01-15T01:47:37;1.30;62.20
10233;DHT22;5161;48.174;11.756;2024-01-15T01:50:03;1.30;62.80
10233;DHT22;5161;48.174;11.756;2024-01-15T01:52:30;1.30;62.20
10233;DHT22;5161;48.174;11.756;2024-01-15T01:54:56;1.30;61.60
10233;DHT22;5161;48.174;11.756;2024-01-15T01:57:22;1.30;61.40
10233;DHT22;5161;48.174;11.756;2024-01-15T01:59:48;1.20;61.20
10233;DHT22;5161;48.174;11.756;2024-01-15T02:02:14;1.20;61.70
10233;DHT22;5161;48.174;11.756;2024-01-15T02:04:40;1.20;61.50
10233;DHT22;5161;48.174;11.756;2024-01-15T02:07:06;1.20;60.80
10233;DHT22;5161;48.174;11.756;2024-01-15T02:09:31;1.20;61.00
10233;DHT22;5161;48.174;11.756;2024-01-15T02:11:57;1.10;60.30
10233;DHT22;5161;48.174;11.756;2024-01-15T02:14:23;1.10;60.30
10233;DHT22;5161;48.174;11.756;2024-01-15T02:16:49;1.10;60.60
10233;DHT22;5161;48.174;11.756;2024-01-15T02:19:15;1.20;60.10
10233;DHT22;5161;48.174;11.756;2024-01-15T02:21:42;1.20;59.50
10233;DHT22;5161;48.174;11.756;2024-01-15T02:24:08;1.20;59.40
10233;DHT22;5161;48.174;11.756;2024-01-15T02:26:34;1.20;59.60
10233;DHT22;5161;48.174;11.756;2024-01-15T02:29:01;1.20;59.50
10233;DHT22;5161;48.174;11.756;2024-01-15T02:31:27;1.30;59.80
10233;DHT22;5161;48.174;11.756;2024-01-15T02:33:53;1.40;59.40
10233;DHT22;5161;48.174;11.756;2024-01-15T02:36:18;1.30;58.90
10233;DHT22;5161;48.174;11.756;2024-01-15T02:38:44;1.30;58.70
10233;DHT22;5161;48.174;11.756;2024-01-15T02:41:09;1.20;58.70
10233;DHT22;5161;48.174;11.756;2024-01-15T02:43:35;1.10;59.00
10233;DHT22;5161;48.174;11.756;2024-01-15T02:46:01;1.00;58.80
10233;DHT22;5161;48.174;11.756;2024-01-15T02:48:26;1.10;59.20
10233;DHT22;5161;48.174;11.756;2024-01-15T02:50:52;1.20;59.00
10233;DHT22;5161;48.174;11.756;2024-01-15T02:53:17;1.20;59.00
10233;DHT22;5161;48.174;11.756;2024-01-15T02:55:43;1.10;59.00
10233;DHT22;5161;48.174;11.756;2024-01-15T02:58:08;1.10;59.00
10233;DHT22;5161;48.174;11.756;2024-01-15T03:00:34;1.10;59.20
10233;DHT22;5161;48.174;11.756;2024-01-15T03:02:59;1.20;59.50
10233;DHT22;5161;48.174;11.756;2024-01-15T03:05:25;1.10;59.40
10233;DHT22;5161;48.174;11.756;2024-01-15T03:07:50;1.10;59.50
10233;DHT22;5161;48.174;11.756;2024-01-15T03:10:16;1.10;59.60
10233;DHT22;5161;48.174;11.756;2024-01-15T03:12:42;1.00;59.70
10233;DHT22;5161;48.174;11.756;2024-01-15T03:15:07;1.10;60.00
10233;DHT22;5161;48.174;11.756;2024-01-15T03:17:33;1.20;60.20
10233;DHT22;5161;48.174;11.756;2024-01-15T03:19:59;1.20;60.00
10233;DHT22;5161;48.174;11.756;2024-01-15T03:22:24;1.20;60.40
10233;DHT22;5161;48.174;11.756;2024-01-15T03:24:50;1.20;60.20
10233;DHT22;5161;48.174;11.756;2024-01-15T03:27:15;1.20;60.40
10233;DHT22;5161;48.174;11.756;2024-01-15T03:29:41;1.20;60.50
10233;DHT22;5161;48.174;11.756;2024-01-15T03:32:07;1.20;60.60
10233;DHT22;5161;48.174;11.756;2024-01-15T03:34:32;1.30;60.60
10233;DHT22;5161;48.174;11.756;2024-01-15T03:36:58;1.20;60.50
10233;DHT22;5161;48.174;11.756;2024-01-15T03:39:25;1.30;60.80
10233;DHT22;5161;48.174;11.756;2024-01-15T03:41:50;1.30;60.50
10233;DHT22;5161;48.174;11.756;2024-01-15T03:44:16;1.20;60.40
10233;DHT22;5161;48.174;11.756;2024-01-15T03:46:41;1.30;60.80
10233;DHT22;5161;48.174;11.756;2024-01-15T03:49:07;1.30;60.60
10233;DHT22;5161;48.174;11.756;2024-01-15T03:51:32;1.30;60.60
10233;DHT22;5161;48.174;11.756;2024-01-15T03:53:58;1.30;60.40
10233;DHT22;5161;48.174;11.756;2024-01-15T03:56:24;1.30;60.30
10233;DHT22;5161;48.174;11.756;2024-01-15T03:58:49;1.30;60.30
10233;DHT22;5161;48.174;11.756;2024-01-15T04:01:15;1.20;60.60
10233;DHT22;5161;48.174;11.756;2024-01-15T04:03:40;1.20;60.30
10233;DHT22;5161;48.174;11.756;2024-01-15T04:06:06;1.30;60.60
10233;DHT22;5161;48.174;11.756;2024-01-15T04:08:31;1.20;60.30
10233;DHT22;5161;48.174;11.756;2024-01-15T04:10:57;1.20;60.50
10233;DHT22;5161;48.174;11.756;2024-01-15T04:13:22;1.30;60.70
10233;DHT22;5161;48.174;11.756;2024-01-15T04:15:48;1.30;60.30
10233;DHT22;5161;48.174;11.756;2024-01-15T04:18:16;1.20;60.50
10233;DHT22;5161;48.174;11.756;2024-01-15T04:20:42;1.30;60.50
10233;DHT22;5161;48.174;11.756;2024-01-15T04:23:08;1.10;60.20
10233;DHT22;5161;48.174;11.756;2024-01-15T04:25:34;1.10;60.80
10233;DHT22;5161;48.174;11.756;2024-01-15T04:27:59;1.20;60.70
10233;DHT22;5161;48.174;11.756;2024-01-15T04:30:25;1.30;60.40
10233;DHT22;5161;48.174;11.756;2024-01-15T04:32:50;1.20;60.50
10233;DHT22;5161;48.174;11.756;2024-01-15T04:35:16;1.20;60.50
10233;DHT22;5161;48.174;11.756;2024-01-15T04:37:42;1.30;60.50
10233;DHT22;5161;48.174;11.756;2024-01-15T04:40:08;1.40;60.50
10233;DHT22;5161;48.174;11.756;2024-01-15T04:42:34;1.40;60.60
10233;DHT22;5161;48.174;11.756;2024-01-15T04:44:59;1.40;60.40
10233;DHT22;5161;48.174;11.756;2024-01-15T04:47:25;1.40;60.20
10233;DHT22;5161;48.174;11.756;2024-01-15T04:49:51;1.40;60.10
10233;DHT22;5161;48.174;11.756;2024-01-15T04:52:16;1.30;60.30
10233;DHT22;5161;48.174;11.756;2024-01-15T04:54:42;1.30;60.30
10233;DHT22;5161;48.174;11.756;2024-01-15T04:57:08;1.10;59.90
10233;DHT22;5161;48.174;11.756;2024-01-15T04:59:33;1.10;61.00
10233;DHT22;5161;48.174;11.756;2024-01-15T05:01:59;1.10;60.40
10233;DHT22;5161;48.174;11.756;2024-01-15T05:04:24;1.10;60.30
10233;DHT22;5161;48.174;11.756;2024-01-15T05:06:50;1.20;60.60
10233;DHT22;5161;48.174;11.756;2024-01-15T05:09:16;1.30;60.80
10233;DHT22;5161;48.174;11.756;2024-01-15T05:11:43;1.30;60.10
10233;DHT22;5161;48.174;11.756;2024-01-15T05:14:08;1.30;60.20
10233;DHT22;5161;48.174;11.756;2024-01-15T05:16:34;1.30;60.10
10233;DHT22;5161;48.174;11.756;2024-01-15T05:19:00;1.20;60.20
10233;DHT22;5161;48.174;11.756;2024-01-15T05:21:25;1.20;60.20
10233;DHT22;5161;48.174;11.756;2024-01-15T05:23:51;1.30;60.30
10233;DHT22;5161;48.174;11.756;2024-01-15T05:26:16;1.40;60.50
10233;DHT22;5161;48.174;11.756;2024-01-15T05:28:42;1.50;60.20
10233;DHT22;5161;48.174;11.756;2024-01-15T05:31:08;1.50;60.10
10233;DHT22;5161;48.174;11.756;2024-01-15T05:33:34;1.50;60.30
10233;DHT22;5161;48.174;11.756;2024-01-15T05:36:00;1.50;60.10
10233;DHT22;5161;48.174;11.756;2024-01-15T05:38:25;1.40;60.10
10233;DHT22;5161;48.174;11.756;2024-01-15T05:40:51;1.30;60.10
10233;DHT22;5161;48.174;11.756;2024-01-15T05:43:17;1.30;60.40
10233;DHT22;5161;48.174;11.756;2024-01-15T05:45:43;1.30;60.30
10233;DHT22;5161;48.174;11.756;2024-01-15T05:48:10;1.40;60.90
10233;DHT22;5161;48.174;11.756;2024-01-15T05:50:35;1.20;60.80
10233;DHT22;5161;48.174;11.756;2024-01-15T05:53:01;1.20;61.00
10233;DHT22;5161;48.174;11.756;2024-01-15T05:55:28;1.10;61.00
10233;DHT22;5161;48.174;11.756;2024-01-15T05:57:53;1.10;61.10
10233;DHT22;5161;48.174;11.756;2024-01-15T06:00:19;1.10;62.20
10233;DHT22;5161;48.174;11.756;2024-01-15T06:02:45;0.90;61.50
10233;DHT22;5161;48.174;11.756;2024-01-15T06:05:10;0.90;61.70
10233;DHT22;5161;48.174;11.756;2024-01-15T06:07:36;0.90;61.70
10233;DHT22;5161;48.174;11.756;2024-01-15T06:10:02;0.90;61.50
10233;DHT22;5161;48.174;11.756;2024-01-15T06:12:28;0.90;61.70
10233;DHT22;5161;48.174;11.756;2024-01-15T06:14:54;0.90;61.60
10233;DHT22;5161;48.174;11.756;2024-01-15T06:17:20;0.90;61.60
10233;DHT22;5161;48.174;11.756;2024-01-15T06:19:45;0.80;61.70
10233;DHT22;5161;48.174;11.756;2024-01-15T06:22:11;0.80;62.10
10233;DHT22;5161;48.174;11.756;2024-01-15T06:24:36;0.90;61.70
10233;DHT22;5161;48.174;11.756;2024-01-15T06:27:02;1.00;61.30
10233;DHT22;5161;48.174;11.756;2024-01-15T06:29:28;0.90;61.30
10233;DHT22;5161;48.174;11.756;2024-01-15T06:31:54;0.90;61.20
10233;DHT22;5161;48.174;11.756;2024-01-15T06:34:19;0.90;61.20
10233;DHT22;5161;48.174;11.756;2024-01-15T06:36:45;0.90;61.20
10233;DHT22;5161;48.174;11.756;2024-01-15T06:39:11;1.00;60.90
10233;DHT22;5161;48.174;11.756;2024-01-15T06:41:36;1.00;60.80
10233;DHT22;5161;48.174;11.756;2024-01-15T06:44:09;0.90;61.00
10233;DHT22;5161;48.174;11.756;2024-01-15T06:46:36;0.90;60.80
10233;DHT22;5161;48.174;11.756;2024-01-15T06:49:01;0.90;61.00
10233;DHT22;5161;48.174;11.756;2024-01-15T06:51:27;1.00;59.90
10233;DHT22;5161;48.174;11.756;2024-01-15T06:53:52;1.00;60.20
10233;DHT22;5161;48.174;11.756;2024-01-15T06:56:18;1.10;60.20
10233;DHT22;5161;48.174;11.756;2024-01-15T06:58:43;1.00;60.30
10233;DHT22;5161;48.174;11.756;2024-01-15T07:01:09;1.10;60.30
10233;DHT22;5161;48.174;11.756;2024-01-15T07:03:35;1.00;59.80
10233;DHT22;5161;48.174;11.756;2024-01-15T07:06:01;1.10;59.90
10233;DHT22;5161;48.174;11.756;2024-01-15T07:08:26;1.10;59.80
10233;DHT22;5161;48.174;11.756;2024-01-15T07:10:52;1.10;60.10
10233;DHT22;5161;48.174;11.756;2024-01-15T07:13:17;1.00;60.10
10233;DHT22;5161;48.174;11.756;2024-01-15T07:15:43;1.00;59.70
10233;DHT22;5161;48.174;11.756;2024-01-15T07:18:08;1.00;59.90
10233;DHT22;5161;48.174;11.756;2024-01-15T07:20:34;1.10;60.10
10233;DHT22;5161;48.174;11.756;2024-01-15T07:23:00;1.10;59.70
10233;DHT22;5161;48.174;11.756;2024-01-15T07:25:25;1.10;60.10
10233;DHT22;5161;48.174;11.756;2024-01-15T07:27:51;1.10;59.90
10233;DHT22;5161;48.174;11.756;2024-01-15T07:30:19;1.20;60.10
10233;DHT22;5161;48.174;11.756;2024-01-15T07:32:45;1.30;59.80
10233;DHT22;5161;48.174;11.756;2024-01-15T07:35:10;1.40;59.70
10233;DHT22;5161;48.174;11.756;2024-01-15T07:37:36;1.40;59.60
10233;DHT22;5161;48.174;11.756;2024-01-15T07:40:01;1.40;59.80
10233;DHT22;5161;48.174;11.756;2024-01-15T07:42:29;1.30;59.50
10233;DHT22;5161;48.174;11.756;2024-01-15T07:44:55;1.30;59.80
10233;DHT22;5161;48.174;11.756;2024-01-15T07:47:20;1.30;59.90
10233;DHT22;5161;48.174;11.756;2024-01-15T07:49:46;1.20;59.90
10233;DHT22;5161;48.174;11.756;2024-01-15T07:52:12;1.20;60.50
10233;DHT22;5161;48.174;11.756;2024-01-15T07:54:38;1.10;60.90
10233;DHT22;5161;48.174;11.756;2024-01-15T07:57:04;1.10;61.60
10233;DHT22;5161;48.174;11.756;2024-01-15T07:59:29;1.20;61.70
10233;DHT22;5161;48.174;11.756;2024-01-15T08:01:55;1.20;61.10
10233;DHT22;5161;48.174;11.756;2024-01-15T08:04:21;1.20;61.20
10233;DHT22;5161;48.174;11.756;2024-01-15T08:06:47;1.20;62.20
10233;DHT22;5161;48.174;11.756;2024-01-15T08:09:13;1.10;62.40
10233;DHT22;5161;48.174;11.756;2024-01-15T08:11:40;1.10;62.60
10233;DHT22;5161;48.174;11.756;2024-01-15T08:14:07;1.20;62.50
10233;DHT22;5161;48.174;11.756;2024-01-15T08:16:32;1.20;62.60
10233;DHT22;5161;48.174;11.756;2024-01-15T08:18:58;1.20;62.50
10233;DHT22;5161;48.174;11.756;2024-01-15T08:21:23;1.10;62.80
10233;DHT22;5161;48.174;11.756;2024-01-15T08:23:49;1.10;62.90
10233;DHT22;5161;48.174;11.756;2024-01-15T08:26:14;1.10;63.10
10233;DHT22;5161;48.174;11.756;2024-01-15T08:28:40;1.10;63.20
10233;DHT22;5161;48.174;11.756;2024-01-15T08:31:05;1.10;63.10
10233;DHT22;5161;48.174;11.756;2024-01-15T08:33:31;1.00;63.10
10233;DHT22;5161;48.174;11.756;2024-01-15T08:35:56;1.10;63.50
10233;DHT22;5161;48.174;11.756;2024-01-15T08:38:22;1.20;63.60
10233;DHT22;5161;48.174;11.756;2024-01-15T08:40:49;1.20;63.20
10233;DHT22;5161;48.174;11.756;2024-01-15T08:43:15;1.20;63.40
10233;DHT22;5161;48.174;11.756;2024-01-15T08:45:40;1.20;63.20
10233;DHT22;5161;48.174;11.756;2024-01-15T08:48:06;1.30;63.10
10233;DHT22;5161;48.174;11.756;2024-01-15T08:50:32;1.40;63.10
10233;DHT22;5161;48.174;11.756;2024-01-15T08:52:58;1.40;62.50
10233;DHT22;5161;48.174;11.756;2024-01-15T08:55:24;1.30;62.70
10233;DHT22;5161;48.174;11.756;2024-01-15T08:57:50;1.40;62.90
10233;DHT22;5161;48.174;11.756;2024-01-15T09:00:16;1.30;62.90
10233;DHT22;5161;48.174;11.756;2024-01-15T09:02:42;1.30;62.90
10233;DHT22;5161;48.174;11.756;2024-01-15T09:05:08;1.30;63.00
10233;DHT22;5161;48.174;11.756;2024-01-15T09:07:34;1.30;62.90
10233;DHT22;5161;48.174;11.756;2024-01-15T09:09:59;1.40;62.50
10233;DHT22;5161;48.174;11.756;2024-01-15T09:12:26;1.40;61.20
10233;DHT22;5161;48.174;11.756;2024-01-15T09:14:51;1.50;62.20
10233;DHT22;5161;48.174;11.756;2024-01-15T09:17:19;1.50;61.20
10233;DHT22;5161;48.174;11.756;2024-01-15T09:19:45;1.50;61.30
10233;DHT22;5161;48.174;11.756;2024-01-15T09:22:12;1.50;61.60
10233;DHT22;5161;48.174;11.756;2024-01-15T09:24:40;1.40;62.10
10233;DHT22;5161;48.174;11.756;2024-01-15T09:27:06;1.50;62.30
10233;DHT22;5161;48.174;11.756;2024-01-15T09:29:32;1.50;61.70
10233;DHT22;5161;48.174;11.756;2024-01-15T09:31:58;1.50;62.00
10233;DHT22;5161;48.174;11.756;2024-01-15T09:34:23;1.40;61.90
10233;DHT22;5161;48.174;11.756;2024-01-15T09:36:49;1.40;62.20
10233;DHT22;5161;48.174;11.756;2024-01-15T09:39:15;1.20;62.20
10233;DHT22;5161;48.174;11.756;2024-01-15T09:41:41;1.20;62.80
10233;DHT22;5161;48.174;11.756;2024-01-15T09:44:07;1.20;63.00
10233;DHT22;5161;48.174;11.756;2024-01-15T09:46:34;1.30;62.70
10233;DHT22;5161;48.174;11.756;2024-01-15T09:49:00;1.50;62.80
10233;DHT22;5161;48.174;11.756;2024-01-15T09:51:29;1.50;62.30
10233;DHT22;5161;48.174;11.756;2024-01-15T09:53:57;1.50;62.40
10233;DHT22;5161;48.174;11.756;2024-01-15T09:56:23;1.50;62.40
10233;DHT22;5161;48.174;11.756;2024-01-15T09:58:50;1.50;62.20
10233;DHT22;5161;48.174;11.756;2024-01-15T10:01:17;1.50;61.20
10233;DHT22;5161;48.174;11.756;2024-01-15T10:03:42;1.50;61.40
10233;DHT22;5161;48.174;11.756;2024-01-15T10:06:09;1.50;61.50
10233;DHT22;5161;48.174;11.756;2024-01-15T10:08:37;1.50;61.30
10233;DHT22;5161;48.174;11.756;2024-01-15T10:11:02;1.50;61.60
10233;DHT22;5161;48.174;11.756;2024-01-15T10:13:30;1.50;61.80
10233;DHT22;5161;48.174;11.756;2024-01-15T10:15:56;1.60;61.50
10233;DHT22;5161;48.174;11.756;2024-01-15T10:18:21;1.60;60.20
10233;DHT22;5161;48.174;11.756;2024-01-15T10:20:47;1.60;60.20
10233;DHT22;5161;48.174;11.756;2024-01-15T10:23:14;1.70;60.30
10233;DHT22;5161;48.174;11.756;2024-01-15T10:25:42;1.70;60.10
10233;DHT22;5161;48.174;11.756;2024-01-15T10:28:07;1.70;60.10
10233;DHT22;5161;48.174;11.756;2024-01-15T10:30:34;1.70;60.20
10233;DHT22;5161;48.174;11.756;2024-01-15T10:33:03;1.80;60.10
10233;DHT22;5161;48.174;11.756;2024-01-15T10:35:33;1.70;59.80
10233;DHT22;5161;48.174;11.756;2024-01-15T10:38:00;1.60;61.10
10233;DHT22;5161;48.174;11.756;2024-01-15T10:40:26;1.50;60.60
10233;DHT22;5161;48.174;11.756;2024-01-15T10:42:52;1.40;60.90
10233;DHT22;5161;48.174;11.756;2024-01-15T10:45:18;1.50;60.80
10233;DHT22;5161;48.174;11.756;2024-01-15T10:47:43;1.50;60.60
10233;DHT22;5161;48.174;11.756;2024-01-15T10:50:10;1.60;60.50
10233;DHT22;5161;48.174;11.756;2024-01-15T10:52:37;1.60;60.20
10233;DHT22;5161;48.174;11.756;2024-01-15T10:55:04;1.60;60.70
10233;DHT22;5161;48.174;11.756;2024-01-15T10:57:30;1.50;60.80
10233;DHT22;5161;48.174;11.756;2024-01-15T10:59:56;1.50;60.30
10233;DHT22;5161;48.174;11.756;2024-01-15T11:02:22;1.50;60.30
10233;DHT22;5161;48.174;11.756;2024-01-15T11:04:47;1.50;60.50
10233;DHT22;5161;48.174;11.756;2024-01-15T11:07:14;1.60;60.90
10233;DHT22;5161;48.174;11.756;2024-01-15T11:09:39;1.70;60.50
10233;DHT22;5161;48.174;11.756;2024-01-15T11:12:13;1.80;60.30
10233;DHT22;5161;48.174;11.756;2024-01-15T11:14:48;1.90;60.30
10233;DHT22;5161;48.174;11.756;2024-01-15T11:17:15;1.90;60.60
10233;DHT22;5161;48.174;11.756;2024-01-15T11:25:18;1.90;60.60
10233;DHT22;5161;48.174;11.756;2024-01-15T11:30:10;1.90;60.70
10233;DHT22;5161;48.174;11.756;2024-01-15T11:32:36;2.00;61.00
10233;DHT22;5161;48.174;11.756;2024-01-15T11:35:02;2.00;60.80
10233;DHT22;5161;48.174;11.756;2024-01-15T11:37:55;1.90;61.00
10233;DHT22;5161;48.174;11.756;2024-01-15T11:40:21;1.90;61.20
10233;DHT22;5161;48.174;11.756;2024-01-15T11:42:48;2.00;62.60
10233;DHT22;5161;48.174;11.756;2024-01-15T11:45:20;2.00;60.90
10233;DHT22;5161;48.174;11.756;2024-01-15T11:48:14;1.90;62.00
10233;DHT22;5161;48.174;11.756;2024-01-15T11:50:48;2.00;62.30
10233;DHT22;5161;48.174;11.756;2024-01-15T11:53:17;1.90;61.40
10233;DHT22;5161;48.174;11.756;2024-01-15T11:55:46;2.10;61.30
10233;DHT22;5161;48.174;11.756;2024-01-15T11:58:14;2.70;61.80
10233;DHT22;5161;48.174;11.756;2024-01-15T12:00:40;3.30;61.20
10233;DHT22;5161;48.174;11.756;2024-01-15T12:03:07;3.80;62.00
10233;DHT22;5161;48.174;11.756;2024-01-15T12:05:33;4.00;62.60
10233;DHT22;5161;48.174;11.756;2024-01-15T12:08:01;4.30;63.00
10233;DHT22;5161;48.174;11.756;2024-01-15T12:10:27;4.40;63.20
10233;DHT22;5161;48.174;11.756;2024-01-15T12:13:00;4.40;63.50
10233;DHT22;5161;48.174;11.756;2024-01-15T12:15:29;3.90;60.10
10233;DHT22;5161;48.174;11.756;2024-01-15T12:17:59;3.70;61.40
10233;DHT22;5161;48.174;11.756;2024-01-15T12:20:29;3.70;61.00
10233;DHT22;5161;48.174;11.756;2024-01-15T12:22:55;3.60;61.60
10233;DHT22;5161;48.174;11.756;2024-01-15T12:25:24;3.60;61.60
10233;DHT22;5161;48.174;11.756;2024-01-15T12:27:52;3.60;59.90
10233;DHT22;5161;48.174;11.756;2024-01-15T12:30:18;3.60;61.80
10233;DHT22;5161;48.174;11.756;2024-01-15T12:32:44;3.70;62.70
10233;DHT22;5161;48.174;11.756;2024-01-15T12:35:10;3.80;62.70
10233;DHT22;5161;48.174;11.756;2024-01-15T12:37:38;3.90;62.00
10233;DHT22;5161;48.174;11.756;2024-01-15T12:40:04;4.10;62.50
10233;DHT22;5161;48.174;11.756;2024-01-15T12:42:32;4.30;62.80
10233;DHT22;5161;48.174;11.756;2024-01-15T12:44:58;4.60;62.70
10233;DHT22;5161;48.174;11.756;2024-01-15T12:47:24;4.70;63.00
10233;DHT22;5161;48.174;11.756;2024-01-15T12:49:52;4.90;62.00
10233;DHT22;5161;48.174;11.756;2024-01-15T12:52:19;4.90;61.30
10233;DHT22;5161;48.174;11.756;2024-01-15T12:54:49;4.60;62.10
10233;DHT22;5161;48.174;11.756;2024-01-15T12:57:16;4.60;63.20
10233;DHT22;5161;48.174;11.756;2024-01-15T12:59:42;4.80;64.20
10233;DHT22;5161;48.174;11.756;2024-01-15T13:02:08;4.80;62.80
10233;DHT22;5161;48.174;11.756;2024-01-15T13:04:33;4.60;62.30
10233;DHT22;5161;48.174;11.756;2024-01-15T13:06:59;4.50;63.50
10233;DHT22;5161;48.174;11.756;2024-01-15T13:09:24;4.70;64.20
10233;DHT22;5161;48.174;11.756;2024-01-15T13:11:50;4.70;62.90
10233;DHT22;5161;48.174;11.756;2024-01-15T13:14:16;4.70;63.00
10233;DHT22;5161;48.174;11.756;2024-01-15T13:16:42;4.40;62.70
10233;DHT22;5161;48.174;11.756;2024-01-15T13:19:10;4.30;63.60
10233;DHT22;5161;48.174;11.756;2024-01-15T13:21:40;4.20;63.50
10233;DHT22;5161;48.174;11.756;2024-01-15T13:24:06;4.00;63.30
10233;DHT22;5161;48.174;11.756;2024-01-15T13:26:35;3.90;64.30
10233;DHT22;5161;48.174;11.756;2024-01-15T13:29:04;3.80;61.90
10233;DHT22;5161;48.174;11.756;2024-01-15T13:31:33;3.70;63.60
10233;DHT22;5161;48.174;11.756;2024-01-15T13:33:59;3.70;61.90
10233;DHT22;5161;48.174;11.756;2024-01-15T13:36:25;3.70;63.20
10233;DHT22;5161;48.174;11.756;2024-01-15T13:38:52;3.70;63.80
10233;DHT22;5161;48.174;11.756;2024-01-15T13:41:18;3.60;63.40
10233;DHT22;5161;48.174;11.756;2024-01-15T13:43:47;3.60;63.90
10233;DHT22;5161;48.174;11.756;2024-01-15T13:46:13;3.50;62.30
10233;DHT22;5161;48.174;11.756;2024-01-15T13:48:38;3.50;63.50
10233;DHT22;5161;48.174;11.756;2024-01-15T13:51:04;3.50;63.70
10233;DHT22;5161;48.174;11.756;2024-01-15T13:53:30;3.50;64.00
10233;DHT22;5161;48.174;11.756;2024-01-15T13:55:56;3.30;62.80
10233;DHT22;5161;48.174;11.756;2024-01-15T13:58:21;3.20;62.40
10233;DHT22;5161;48.174;11.756;2024-01-15T14:00:47;3.30;63.10
10233;DHT22;5161;48.174;11.756;2024-01-15T14:03:14;3.30;62.80
10233;DHT22;5161;48.174;11.756;2024-01-15T14:05:40;3.30;63.10
10233;DHT22;5161;48.174;11.756;2024-01-15T14:08:05;3.30;62.10
10233;DHT22;5161;48.174;11.756;2024-01-15T14:10:31;3.20;61.70
10233;DHT22;5161;48.174;11.756;2024-01-15T14:12:56;3.20;61.40
10233;DHT22;5161;48.174;11.756;2024-01-15T14:15:22;3.30;62.10
10233;DHT22;5161;48.174;11.756;2024-01-15T14:17:47;3.20;61.50
10233;DHT22;5161;48.174;11.756;2024-01-15T14:20:13;3.00;61.40
10233;DHT22;5161;48.174;11.756;2024-01-15T14:22:39;3.10;61.40
10233;DHT22;5161;48.174;11.756;2024-01-15T14:25:04;3.10;61.60
10233;DHT22;5161;48.174;11.756;2024-01-15T14:27:30;3.10;61.60
10233;DHT22;5161;48.174;11.756;2024-01-15T14:29:56;3.10;61.60
10233;DHT22;5161;48.174;11.756;2024-01-15T14:32:21;3.10;62.40
10233;DHT22;5161;48.174;11.756;2024-01-15T14:34:47;3.10;61.80
10233;DHT22;5161;48.174;11.756;2024-01-15T14:37:13;3.10;62.10
10233;DHT22;5161;48.174;11.756;2024-01-15T14:39:39;2.90;62.70
10233;DHT22;5161;48.174;11.756;2024-01-15T14:42:04;3.00;62.60
10233;DHT22;5161;48.174;11.756;2024-01-15T14:44:30;3.10;62.50
10233;DHT22;5161;48.174;11.756;2024-01-15T14:46:55;3.10;62.50
10233;DHT22;5161;48.174;11.756;2024-01-15T14:49:23;3.00;62.90
10233;DHT22;5161;48.174;11.756;2024-01-15T14:51:50;2.90;63.60
10233;DHT22;5161;48.174;11.756;2024-01-15T14:54:15;2.70;64.30
10233;DHT22;5161;48.174;11.756;2024-01-15T14:56:41;2.70;64.10
10233;DHT22;5161;48.174;11.756;2024-01-15T14:59:08;2.60;64.60
10233;DHT22;5161;48.174;11.756;2024-01-15T15:01:34;2.50;65.40
10233;DHT22;5161;48.174;11.756;2024-01-15T15:04:00;2.50;65.70
10233;DHT22;5161;48.174;11.756;2024-01-15T15:06:26;2.50;65.70
10233;DHT22;5161;48.174;11.756;2024-01-15T15:08:53;2.50;65.30
10233;DHT22;5161;48.174;11.756;2024-01-15T15:11:25;2.60;65.00
10233;DHT22;5161;48.174;11.756;2024-01-15T15:13:51;2.60;65.50
10233;DHT22;5161;48.174;11.756;2024-01-15T15:16:17;2.70;64.30
10233;DHT22;5161;48.174;11.756;2024-01-15T15:18:42;2.70;63.40
10233;DHT22;5161;48.174;11.756;2024-01-15T15:21:12;2.60;63.30
10233;DHT22;5161;48.174;11.756;2024-01-15T15:23:37;2.50;64.50
10233;DHT22;5161;48.174;11.756;2024-01-15T15:26:04;2.40;63.50
10233;DHT22;5161;48.174;11.756;2024-01-15T15:28:30;2.40;64.60
10233;DHT22;5161;48.174;11.756;2024-01-15T15:30:56;2.40;64.40
10233;DHT22;5161;48.174;11.756;2024-01-15T15:33:22;2.50;63.80
10233;DHT22;5161;48.174;11.756;2024-01-15T15:35:48;2.40;64.80
10233;DHT22;5161;48.174;11.756;2024-01-15T15:38:16;2.30;64.60
10233;DHT22;5161;48.174;11.756;2024-01-15T15:40:42;2.30;64.80
10233;DHT22;5161;48.174;11.756;2024-01-15T15:43:08;2.20;64.80
10233;DHT22;5161;48.174;11.756;2024-01-15T15:45:33;2.30;65.00